sensor_id;sensor_type;location;lat;lon;timestamp;P1;durP1;ratioP1;P2;durP2;ratioP2
20294;SDS011;10306;52.128;5.208;2023-07-16T00:00:34;3.23;;;1.70;;
20294;SDS011;10306;52.128;5.208;2023-07-16T00:03:00;2.57;;;1.80;;
20294;SDS011;10306;52.128;5.208;2023-07-16T00:05:26;5.23;;;2.00;;
20294;SDS011;10306;52.128;5.208;2023-07-16T00:07:52;4.90;;;2.57;;
20294;SDS011;10306;52.128;5.208;2023-07-16T00:10:18;2.13;;;1.67;;
20294;SDS011;10306;52.128;5.208;2023-07-16T00:12:44;5.03;;;1.90;;
20294;SDS011;10306;52.128;5.208;2023-07-16T00:15:10;3.63;;;1.83;;
20294;SDS011;10306;52.128;5.208;2023-07-16T00:17:36;3.27;;;1.70;;
20294;SDS011;10306;52.128;5.208;2023-07-16T00:20:02;2.70;;;1.93;;
20294;SDS011;10306;52.128;5.208;2023-07-16T00:22:29;3.87;;;2.17;;
20294;SDS011;10306;52.128;5.208;2023-07-16T00:24:55;3.87;;;2.10;;
20294;SDS011;10306;52.128;5.208;2023-07-16T00:27:21;4.77;;;2.17;;
20294;SDS011;10306;52.128;5.208;2023-07-16T00:29:47;2.53;;;2.00;;
20294;SDS011;10306;52.128;5.208;2023-07-16T00:32:13;3.93;;;2.37;;
20294;SDS011;10306;52.128;5.208;2023-07-16T00:34:39;5.77;;;2.07;;
20294;SDS011;10306;52.128;5.208;2023-07-16T00:37:05;6.03;;;2.30;;
20294;SDS011;10306;52.128;5.208;2023-07-16T00:39:31;3.00;;;2.10;;
20294;SDS011;10306;52.128;5.208;2023-07-16T00:41:57;3.07;;;2.33;;
20294;SDS011;10306;52.128;5.208;2023-07-16T00:44:23;3.37;;;2.00;;
20294;SDS011;10306;52.128;5.208;2023-07-16T00:46:49;3.50;;;2.30;;
20294;SDS011;10306;52.128;5.208;2023-07-16T00:49:15;2.67;;;2.37;;
20294;SDS011;10306;52.128;5.208;2023-07-16T00:51:41;3.90;;;2.23;;
20294;SDS011;10306;52.128;5.208;2023-07-16T00:54:08;2.30;;;2.10;;
20294;SDS011;10306;52.128;5.208;2023-07-16T00:56:34;2.47;;;2.23;;
20294;SDS011;10306;52.128;5.208;2023-07-16T00:59:00;4.07;;;2.27;;
20294;SDS011;10306;52.128;5.208;2023-07-16T01:01:26;4.57;;;2.20;;
20294;SDS011;10306;52.128;5.208;2023-07-16T01:03:52;3.87;;;2.20;;
20294;SDS011;10306;52.128;5.208;2023-07-16T01:08:56;3.57;;;2.50;;
20294;SDS011;10306;52.128;5.208;2023-07-16T01:11:23;3.37;;;2.30;;
20294;SDS011;10306;52.128;5.208;2023-07-16T01:13:50;8.53;;;2.50;;
20294;SDS011;10306;52.128;5.208;2023-07-16T01:16:23;5.70;;;2.30;;
20294;SDS011;10306;52.128;5.208;2023-07-16T01:18:50;5.37;;;2.30;;
20294;SDS011;10306;52.128;5.208;2023-07-16T01:21:18;6.47;;;2.37;;
20294;SDS011;10306;52.128;5.208;2023-07-16T01:24:00;2.33;;;2.07;;
20294;SDS011;10306;52.128;5.208;2023-07-16T01:29:28;3.13;;;2.57;;
20294;SDS011;10306;52.128;5.208;2023-07-16T01:31:55;2.73;;;2.50;;
20294;SDS011;10306;52.128;5.208;2023-07-16T01:34:22;6.07;;;3.00;;
20294;SDS011;10306;52.128;5.208;2023-07-16T01:36:48;3.47;;;2.87;;
20294;SDS011;10306;52.128;5.208;2023-07-16T01:39:15;7.00;;;2.90;;
20294;SDS011;10306;52.128;5.208;2023-07-16T01:41:41;5.87;;;2.80;;
20294;SDS011;10306;52.128;5.208;2023-07-16T01:44:06;4.40;;;2.67;;
20294;SDS011;10306;52.128;5.208;2023-07-16T01:46:32;3.37;;;2.60;;
20294;SDS011;10306;52.128;5.208;2023-07-16T01:48:59;3.87;;;2.77;;
20294;SDS011;10306;52.128;5.208;2023-07-16T01:51:25;4.37;;;2.87;;
20294;SDS011;10306;52.128;5.208;2023-07-16T01:53:50;8.17;;;3.40;;
20294;SDS011;10306;52.128;5.208;2023-07-16T01:56:16;3.43;;;2.40;;
20294;SDS011;10306;52.128;5.208;2023-07-16T01:58:42;5.10;;;2.73;;
20294;SDS011;10306;52.128;5.208;2023-07-16T02:01:08;2.83;;;2.57;;
20294;SDS011;10306;52.128;5.208;2023-07-16T02:03:34;5.10;;;3.00;;
20294;SDS011;10306;52.128;5.208;2023-07-16T02:06:01;5.43;;;3.30;;
20294;SDS011;10306;52.128;5.208;2023-07-16T02:08:26;4.90;;;3.13;;
20294;SDS011;10306;52.128;5.208;2023-07-16T02:10:52;5.83;;;3.10;;
20294;SDS011;10306;52.128;5.208;2023-07-16T02:13:19;4.67;;;3.00;;
20294;SDS011;10306;52.128;5.208;2023-07-16T02:15:44;9.63;;;3.07;;
20294;SDS011;10306;52.128;5.208;2023-07-16T02:18:10;4.30;;;3.00;;
20294;SDS011;10306;52.128;5.208;2023-07-16T02:20:36;6.17;;;3.20;;
20294;SDS011;10306;52.128;5.208;2023-07-16T02:23:02;6.17;;;3.40;;
20294;SDS011;10306;52.128;5.208;2023-07-16T02:25:28;7.40;;;3.40;;
20294;SDS011;10306;52.128;5.208;2023-07-16T02:27:54;3.17;;;2.97;;
20294;SDS011;10306;52.128;5.208;2023-07-16T02:30:20;7.80;;;3.43;;
20294;SDS011;10306;52.128;5.208;2023-07-16T02:32:46;3.63;;;2.90;;
20294;SDS011;10306;52.128;5.208;2023-07-16T02:35:12;3.87;;;3.50;;
20294;SDS011;10306;52.128;5.208;2023-07-16T02:37:38;3.90;;;3.50;;
20294;SDS011;10306;52.128;5.208;2023-07-16T02:40:05;4.30;;;3.00;;
20294;SDS011;10306;52.128;5.208;2023-07-16T02:42:32;5.60;;;3.30;;
20294;SDS011;10306;52.128;5.208;2023-07-16T02:44:58;3.93;;;3.10;;
20294;SDS011;10306;52.128;5.208;2023-07-16T02:47:24;5.93;;;3.40;;
20294;SDS011;10306;52.128;5.208;2023-07-16T02:49:53;3.67;;;3.13;;
20294;SDS011;10306;52.128;5.208;2023-07-16T02:52:19;4.27;;;2.93;;
20294;SDS011;10306;52.128;5.208;2023-07-16T02:54:45;6.57;;;3.83;;
20294;SDS011;10306;52.128;5.208;2023-07-16T02:57:11;6.07;;;3.53;;
20294;SDS011;10306;52.128;5.208;2023-07-16T02:59:37;5.40;;;3.20;;
20294;SDS011;10306;52.128;5.208;2023-07-16T03:02:03;5.47;;;3.00;;
20294;SDS011;10306;52.128;5.208;2023-07-16T03:04:29;3.70;;;3.40;;
20294;SDS011;10306;52.128;5.208;2023-07-16T03:06:55;4.77;;;3.13;;
20294;SDS011;10306;52.128;5.208;2023-07-16T03:09:21;5.37;;;3.80;;
20294;SDS011;10306;52.128;5.208;2023-07-16T03:11:47;3.60;;;2.77;;
20294;SDS011;10306;52.128;5.208;2023-07-16T03:14:13;5.73;;;3.63;;
20294;SDS011;10306;52.128;5.208;2023-07-16T03:16:39;5.47;;;3.13;;
20294;SDS011;10306;52.128;5.208;2023-07-16T03:19:05;4.20;;;3.10;;
20294;SDS011;10306;52.128;5.208;2023-07-16T03:21:31;4.57;;;3.00;;
20294;SDS011;10306;52.128;5.208;2023-07-16T03:23:57;5.67;;;3.43;;
20294;SDS011;10306;52.128;5.208;2023-07-16T03:26:23;3.60;;;2.93;;
20294;SDS011;10306;52.128;5.208;2023-07-16T03:28:49;3.63;;;3.17;;
20294;SDS011;10306;52.128;5.208;2023-07-16T03:31:15;6.83;;;3.07;;
20294;SDS011;10306;52.128;5.208;2023-07-16T03:33:41;3.50;;;3.00;;
20294;SDS011;10306;52.128;5.208;2023-07-16T03:36:06;5.30;;;3.10;;
20294;SDS011;10306;52.128;5.208;2023-07-16T03:38:32;5.60;;;3.60;;
20294;SDS011;10306;52.128;5.208;2023-07-16T03:40:58;7.10;;;3.50;;
20294;SDS011;10306;52.128;5.208;2023-07-16T03:43:25;3.63;;;2.87;;
20294;SDS011;10306;52.128;5.208;2023-07-16T03:45:51;7.43;;;3.20;;
20294;SDS011;10306;52.128;5.208;2023-07-16T03:48:17;3.40;;;3.07;;
20294;SDS011;10306;52.128;5.208;2023-07-16T03:50:43;5.17;;;3.40;;
20294;SDS011;10306;52.128;5.208;2023-07-16T03:53:09;9.43;;;3.27;;
20294;SDS011;10306;52.128;5.208;2023-07-16T03:55:35;4.90;;;3.23;;
20294;SDS011;10306;52.128;5.208;2023-07-16T03:58:02;6.83;;;3.37;;
20294;SDS011;10306;52.128;5.208;2023-07-16T04:00:28;5.20;;;3.47;;
20294;SDS011;10306;52.128;5.208;2023-07-16T04:02:54;5.13;;;2.97;;
20294;SDS011;10306;52.128;5.208;2023-07-16T04:05:20;4.77;;;3.47;;
20294;SDS011;10306;52.128;5.208;2023-07-16T04:07:46;8.30;;;3.93;;
20294;SDS011;10306;52.128;5.208;2023-07-16T04:10:12;4.87;;;3.50;;
20294;SDS011;10306;52.128;5.208;2023-07-16T04:12:38;8.43;;;3.50;;
20294;SDS011;10306;52.128;5.208;2023-07-16T04:15:06;6.60;;;3.87;;
20294;SDS011;10306;52.128;5.208;2023-07-16T04:17:33;9.00;;;3.93;;
20294;SDS011;10306;52.128;5.208;2023-07-16T04:19:59;7.63;;;4.20;;
20294;SDS011;10306;52.128;5.208;2023-07-16T04:22:25;7.70;;;4.07;;
20294;SDS011;10306;52.128;5.208;2023-07-16T04:24:51;5.47;;;3.97;;
20294;SDS011;10306;52.128;5.208;2023-07-16T04:27:17;6.23;;;3.63;;
20294;SDS011;10306;52.128;5.208;2023-07-16T04:29:43;8.97;;;3.70;;
20294;SDS011;10306;52.128;5.208;2023-07-16T04:32:09;5.40;;;4.10;;
20294;SDS011;10306;52.128;5.208;2023-07-16T04:34:35;4.60;;;4.00;;
20294;SDS011;10306;52.128;5.208;2023-07-16T04:37:01;5.53;;;4.00;;
20294;SDS011;10306;52.128;5.208;2023-07-16T04:39:28;5.07;;;3.40;;
20294;SDS011;10306;52.128;5.208;2023-07-16T04:41:54;5.00;;;3.90;;
20294;SDS011;10306;52.128;5.208;2023-07-16T04:44:19;4.27;;;3.97;;
20294;SDS011;10306;52.128;5.208;2023-07-16T04:46:45;5.53;;;3.90;;
20294;SDS011;10306;52.128;5.208;2023-07-16T04:49:11;8.33;;;3.67;;
20294;SDS011;10306;52.128;5.208;2023-07-16T04:51:37;5.03;;;3.93;;
20294;SDS011;10306;52.128;5.208;2023-07-16T04:54:03;6.03;;;3.70;;
20294;SDS011;10306;52.128;5.208;2023-07-16T04:56:29;4.83;;;3.90;;
20294;SDS011;10306;52.128;5.208;2023-07-16T04:58:55;5.00;;;4.30;;
20294;SDS011;10306;52.128;5.208;2023-07-16T05:01:21;6.40;;;3.67;;
20294;SDS011;10306;52.128;5.208;2023-07-16T05:03:50;6.63;;;3.77;;
20294;SDS011;10306;52.128;5.208;2023-07-16T05:06:16;4.50;;;4.10;;
20294;SDS011;10306;52.128;5.208;2023-07-16T05:08:42;6.60;;;3.97;;
20294;SDS011;10306;52.128;5.208;2023-07-16T05:11:08;5.53;;;3.90;;
20294;SDS011;10306;52.128;5.208;2023-07-16T05:13:34;4.30;;;3.90;;
20294;SDS011;10306;52.128;5.208;2023-07-16T05:16:00;4.03;;;3.70;;
20294;SDS011;10306;52.128;5.208;2023-07-16T05:18:26;8.13;;;4.13;;
20294;SDS011;10306;52.128;5.208;2023-07-16T05:20:52;4.47;;;3.77;;
20294;SDS011;10306;52.128;5.208;2023-07-16T05:23:18;6.70;;;3.87;;
20294;SDS011;10306;52.128;5.208;2023-07-16T05:25:47;4.50;;;4.10;;
20294;SDS011;10306;52.128;5.208;2023-07-16T05:28:14;5.10;;;3.80;;
20294;SDS011;10306;52.128;5.208;2023-07-16T05:30:40;9.40;;;5.00;;
20294;SDS011;10306;52.128;5.208;2023-07-16T05:33:06;5.43;;;4.20;;
20294;SDS011;10306;52.128;5.208;2023-07-16T05:35:32;6.80;;;4.27;;
20294;SDS011;10306;52.128;5.208;2023-07-16T05:37:58;4.37;;;3.97;;
20294;SDS011;10306;52.128;5.208;2023-07-16T05:40:24;4.40;;;4.00;;
20294;SDS011;10306;52.128;5.208;2023-07-16T05:42:50;4.83;;;4.43;;
20294;SDS011;10306;52.128;5.208;2023-07-16T05:45:16;7.37;;;4.40;;
20294;SDS011;10306;52.128;5.208;2023-07-16T05:47:42;6.23;;;4.23;;
20294;SDS011;10306;52.128;5.208;2023-07-16T05:50:08;6.90;;;4.33;;
20294;SDS011;10306;52.128;5.208;2023-07-16T05:52:34;4.57;;;3.80;;
20294;SDS011;10306;52.128;5.208;2023-07-16T05:55:00;5.13;;;4.13;;
20294;SDS011;10306;52.128;5.208;2023-07-16T05:57:26;6.07;;;4.30;;
20294;SDS011;10306;52.128;5.208;2023-07-16T05:59:52;4.67;;;4.27;;
20294;SDS011;10306;52.128;5.208;2023-07-16T06:02:18;5.37;;;4.10;;
20294;SDS011;10306;52.128;5.208;2023-07-16T06:04:44;4.70;;;4.30;;
20294;SDS011;10306;52.128;5.208;2023-07-16T06:07:10;7.63;;;4.00;;
20294;SDS011;10306;52.128;5.208;2023-07-16T06:09:36;6.47;;;3.90;;
20294;SDS011;10306;52.128;5.208;2023-07-16T06:12:02;5.50;;;4.23;;
20294;SDS011;10306;52.128;5.208;2023-07-16T06:14:28;4.47;;;4.00;;
20294;SDS011;10306;52.128;5.208;2023-07-16T06:16:54;5.07;;;4.53;;
20294;SDS011;10306;52.128;5.208;2023-07-16T06:19:20;5.57;;;4.67;;
20294;SDS011;10306;52.128;5.208;2023-07-16T06:21:46;6.80;;;4.20;;
20294;SDS011;10306;52.128;5.208;2023-07-16T06:24:12;6.37;;;4.77;;
20294;SDS011;10306;52.128;5.208;2023-07-16T06:26:38;6.73;;;4.80;;
20294;SDS011;10306;52.128;5.208;2023-07-16T06:29:04;6.03;;;4.10;;
20294;SDS011;10306;52.128;5.208;2023-07-16T06:31:30;5.43;;;4.07;;
20294;SDS011;10306;52.128;5.208;2023-07-16T06:33:56;4.93;;;4.40;;
20294;SDS011;10306;52.128;5.208;2023-07-16T06:36:22;7.37;;;4.93;;
20294;SDS011;10306;52.128;5.208;2023-07-16T06:38:48;6.80;;;4.63;;
20294;SDS011;10306;52.128;5.208;2023-07-16T06:41:14;4.93;;;4.53;;
20294;SDS011;10306;52.128;5.208;2023-07-16T06:43:40;4.73;;;4.10;;
20294;SDS011;10306;52.128;5.208;2023-07-16T06:46:06;5.27;;;4.63;;
20294;SDS011;10306;52.128;5.208;2023-07-16T06:48:32;6.23;;;4.57;;
20294;SDS011;10306;52.128;5.208;2023-07-16T06:50:59;6.37;;;4.57;;
20294;SDS011;10306;52.128;5.208;2023-07-16T06:53:25;8.23;;;4.67;;
20294;SDS011;10306;52.128;5.208;2023-07-16T06:55:51;5.10;;;4.60;;
20294;SDS011;10306;52.128;5.208;2023-07-16T06:58:17;5.70;;;4.30;;
20294;SDS011;10306;52.128;5.208;2023-07-16T07:00:43;7.77;;;4.53;;
20294;SDS011;10306;52.128;5.208;2023-07-16T07:03:09;4.67;;;3.93;;
20294;SDS011;10306;52.128;5.208;2023-07-16T07:05:35;5.20;;;3.97;;
20294;SDS011;10306;52.128;5.208;2023-07-16T07:08:01;5.83;;;4.23;;
20294;SDS011;10306;52.128;5.208;2023-07-16T07:10:28;5.97;;;4.40;;
20294;SDS011;10306;52.128;5.208;2023-07-16T07:12:53;5.83;;;4.23;;
20294;SDS011;10306;52.128;5.208;2023-07-16T07:15:19;7.00;;;4.70;;
20294;SDS011;10306;52.128;5.208;2023-07-16T07:17:45;4.93;;;4.53;;
20294;SDS011;10306;52.128;5.208;2023-07-16T07:20:12;4.57;;;3.40;;
20294;SDS011;10306;52.128;5.208;2023-07-16T07:22:38;5.00;;;4.47;;
20294;SDS011;10306;52.128;5.208;2023-07-16T07:25:04;7.50;;;4.60;;
20294;SDS011;10306;52.128;5.208;2023-07-16T07:27:31;5.77;;;4.50;;
20294;SDS011;10306;52.128;5.208;2023-07-16T07:29:56;4.63;;;4.23;;
20294;SDS011;10306;52.128;5.208;2023-07-16T07:32:22;5.87;;;4.47;;
20294;SDS011;10306;52.128;5.208;2023-07-16T07:34:48;5.40;;;4.70;;
20294;SDS011;10306;52.128;5.208;2023-07-16T07:37:14;4.83;;;4.10;;
20294;SDS011;10306;52.128;5.208;2023-07-16T07:39:40;5.67;;;4.53;;
20294;SDS011;10306;52.128;5.208;2023-07-16T07:42:07;5.13;;;4.67;;
20294;SDS011;10306;52.128;5.208;2023-07-16T07:44:34;6.93;;;4.90;;
20294;SDS011;10306;52.128;5.208;2023-07-16T07:47:00;6.43;;;4.90;;
20294;SDS011;10306;52.128;5.208;2023-07-16T07:49:26;6.87;;;4.50;;
20294;SDS011;10306;52.128;5.208;2023-07-16T07:51:52;6.70;;;4.80;;
20294;SDS011;10306;52.128;5.208;2023-07-16T07:54:20;6.23;;;4.70;;
20294;SDS011;10306;52.128;5.208;2023-07-16T07:56:46;5.03;;;4.27;;
20294;SDS011;10306;52.128;5.208;2023-07-16T07:59:12;5.37;;;4.87;;
20294;SDS011;10306;52.128;5.208;2023-07-16T08:01:37;7.43;;;4.67;;
20294;SDS011;10306;52.128;5.208;2023-07-16T08:04:03;5.93;;;4.97;;
20294;SDS011;10306;52.128;5.208;2023-07-16T08:06:30;5.30;;;4.80;;
20294;SDS011;10306;52.128;5.208;2023-07-16T08:08:55;7.20;;;5.23;;
20294;SDS011;10306;52.128;5.208;2023-07-16T08:11:21;6.50;;;4.53;;
20294;SDS011;10306;52.128;5.208;2023-07-16T08:13:47;10.63;;;5.03;;
20294;SDS011;10306;52.128;5.208;2023-07-16T08:16:14;6.05;;;4.60;;
20294;SDS011;10306;52.128;5.208;2023-07-16T08:18:40;4.93;;;4.47;;
20294;SDS011;10306;52.128;5.208;2023-07-16T08:21:06;5.23;;;4.80;;
20294;SDS011;10306;52.128;5.208;2023-07-16T08:23:32;5.07;;;4.53;;
20294;SDS011;10306;52.128;5.208;2023-07-16T08:25:58;5.30;;;4.23;;
20294;SDS011;10306;52.128;5.208;2023-07-16T08:28:24;6.87;;;4.90;;
20294;SDS011;10306;52.128;5.208;2023-07-16T08:30:50;4.27;;;3.97;;
20294;SDS011;10306;52.128;5.208;2023-07-16T08:33:16;7.37;;;4.90;;
20294;SDS011;10306;52.128;5.208;2023-07-16T08:35:42;8.23;;;4.75;;
20294;SDS011;10306;52.128;5.208;2023-07-16T08:38:08;8.63;;;5.23;;
20294;SDS011;10306;52.128;5.208;2023-07-16T08:40:36;7.40;;;5.10;;
20294;SDS011;10306;52.128;5.208;2023-07-16T08:43:02;5.17;;;4.43;;
20294;SDS011;10306;52.128;5.208;2023-07-16T08:45:28;5.33;;;4.17;;
20294;SDS011;10306;52.128;5.208;2023-07-16T08:47:55;7.90;;;4.73;;
20294;SDS011;10306;52.128;5.208;2023-07-16T08:50:21;6.97;;;4.40;;
20294;SDS011;10306;52.128;5.208;2023-07-16T08:52:47;4.47;;;4.07;;
20294;SDS011;10306;52.128;5.208;2023-07-16T08:55:13;4.83;;;4.40;;
20294;SDS011;10306;52.128;5.208;2023-07-16T08:57:39;6.10;;;4.20;;
20294;SDS011;10306;52.128;5.208;2023-07-16T09:00:06;5.07;;;4.13;;
20294;SDS011;10306;52.128;5.208;2023-07-16T09:02:32;5.03;;;4.53;;
20294;SDS011;10306;52.128;5.208;2023-07-16T09:04:58;4.60;;;4.20;;
20294;SDS011;10306;52.128;5.208;2023-07-16T09:07:24;6.95;;;4.70;;
20294;SDS011;10306;52.128;5.208;2023-07-16T09:09:57;7.73;;;4.67;;
20294;SDS011;10306;52.128;5.208;2023-07-16T09:12:23;5.90;;;4.70;;
20294;SDS011;10306;52.128;5.208;2023-07-16T09:14:49;4.70;;;4.30;;
20294;SDS011;10306;52.128;5.208;2023-07-16T09:17:20;6.37;;;5.30;;
20294;SDS011;10306;52.128;5.208;2023-07-16T09:19:46;5.27;;;4.67;;
20294;SDS011;10306;52.128;5.208;2023-07-16T09:22:12;7.80;;;4.77;;
20294;SDS011;10306;52.128;5.208;2023-07-16T09:24:38;5.80;;;3.93;;
20294;SDS011;10306;52.128;5.208;2023-07-16T09:27:04;5.60;;;4.30;;
20294;SDS011;10306;52.128;5.208;2023-07-16T09:29:31;5.72;;;4.28;;
20294;SDS011;10306;52.128;5.208;2023-07-16T09:31:59;4.90;;;4.40;;
20294;SDS011;10306;52.128;5.208;2023-07-16T09:34:27;4.57;;;4.10;;
20294;SDS011;10306;52.128;5.208;2023-07-16T09:36:53;4.73;;;4.37;;
20294;SDS011;10306;52.128;5.208;2023-07-16T09:39:19;5.43;;;4.53;;
20294;SDS011;10306;52.128;5.208;2023-07-16T09:41:46;5.40;;;4.20;;
20294;SDS011;10306;52.128;5.208;2023-07-16T09:44:13;5.67;;;5.17;;
20294;SDS011;10306;52.128;5.208;2023-07-16T09:46:40;6.90;;;4.80;;
20294;SDS011;10306;52.128;5.208;2023-07-16T09:49:06;6.57;;;4.15;;
20294;SDS011;10306;52.128;5.208;2023-07-16T09:51:32;8.63;;;4.30;;
20294;SDS011;10306;52.128;5.208;2023-07-16T09:53:59;5.57;;;4.47;;
20294;SDS011;10306;52.128;5.208;2023-07-16T09:56:26;5.07;;;4.57;;
20294;SDS011;10306;52.128;5.208;2023-07-16T09:58:55;5.77;;;4.67;;
20294;SDS011;10306;52.128;5.208;2023-07-16T10:01:22;5.40;;;4.40;;
20294;SDS011;10306;52.128;5.208;2023-07-16T10:03:51;5.93;;;4.77;;
20294;SDS011;10306;52.128;5.208;2023-07-16T10:06:17;4.57;;;4.27;;
20294;SDS011;10306;52.128;5.208;2023-07-16T10:08:48;5.10;;;4.70;;
20294;SDS011;10306;52.128;5.208;2023-07-16T10:11:18;5.17;;;4.60;;
20294;SDS011;10306;52.128;5.208;2023-07-16T10:13:50;6.10;;;4.80;;
20294;SDS011;10306;52.128;5.208;2023-07-16T10:16:19;4.97;;;4.40;;
20294;SDS011;10306;52.128;5.208;2023-07-16T10:18:52;5.38;;;4.22;;
20294;SDS011;10306;52.128;5.208;2023-07-16T10:21:25;7.05;;;4.70;;
20294;SDS011;10306;52.128;5.208;2023-07-16T10:23:58;4.88;;;4.30;;
20294;SDS011;10306;52.128;5.208;2023-07-16T10:26:27;6.83;;;4.60;;
20294;SDS011;10306;52.128;5.208;2023-07-16T10:28:54;6.37;;;4.80;;
20294;SDS011;10306;52.128;5.208;2023-07-16T10:31:24;5.80;;;4.53;;
20294;SDS011;10306;52.128;5.208;2023-07-16T10:34:08;4.45;;;4.05;;
20294;SDS011;10306;52.128;5.208;2023-07-16T10:36:37;9.25;;;4.40;;
20294;SDS011;10306;52.128;5.208;2023-07-16T10:39:04;5.63;;;4.40;;
20294;SDS011;10306;52.128;5.208;2023-07-16T10:41:30;4.93;;;3.85;;
20294;SDS011;10306;52.128;5.208;2023-07-16T10:43:57;4.35;;;4.05;;
20294;SDS011;10306;52.128;5.208;2023-07-16T10:46:24;6.07;;;4.50;;
20294;SDS011;10306;52.128;5.208;2023-07-16T10:48:50;7.15;;;3.85;;
20294;SDS011;10306;52.128;5.208;2023-07-16T10:51:16;6.90;;;4.30;;
20294;SDS011;10306;52.128;5.208;2023-07-16T10:53:42;5.22;;;3.78;;
20294;SDS011;10306;52.128;5.208;2023-07-16T10:56:08;6.55;;;3.90;;
20294;SDS011;10306;52.128;5.208;2023-07-16T10:58:38;6.03;;;3.72;;
20294;SDS011;10306;52.128;5.208;2023-07-16T11:01:07;5.07;;;3.47;;
20294;SDS011;10306;52.128;5.208;2023-07-16T11:03:34;3.50;;;3.30;;
20294;SDS011;10306;52.128;5.208;2023-07-16T11:06:05;3.35;;;3.03;;
20294;SDS011;10306;52.128;5.208;2023-07-16T11:08:31;3.78;;;2.80;;
20294;SDS011;10306;52.128;5.208;2023-07-16T11:10:57;3.22;;;3.03;;
20294;SDS011;10306;52.128;5.208;2023-07-16T11:13:27;4.72;;;2.92;;
20294;SDS011;10306;52.128;5.208;2023-07-16T11:15:53;3.00;;;2.80;;
20294;SDS011;10306;52.128;5.208;2023-07-16T11:18:21;3.42;;;2.70;;
20294;SDS011;10306;52.128;5.208;2023-07-16T11:20:50;3.42;;;2.40;;
20294;SDS011;10306;52.128;5.208;2023-07-16T11:23:17;3.00;;;2.70;;
20294;SDS011;10306;52.128;5.208;2023-07-16T11:25:47;3.17;;;2.75;;
20294;SDS011;10306;52.128;5.208;2023-07-16T11:28:13;4.53;;;2.75;;
20294;SDS011;10306;52.128;5.208;2023-07-16T11:30:39;2.72;;;2.53;;
20294;SDS011;10306;52.128;5.208;2023-07-16T11:33:09;2.38;;;2.28;;
20294;SDS011;10306;52.128;5.208;2023-07-16T11:35:35;4.18;;;2.97;;
20294;SDS011;10306;52.128;5.208;2023-07-16T11:38:04;3.05;;;2.85;;
20294;SDS011;10306;52.128;5.208;2023-07-16T11:40:30;3.10;;;2.88;;
20294;SDS011;10306;52.128;5.208;2023-07-16T11:42:56;3.40;;;3.10;;
20294;SDS011;10306;52.128;5.208;2023-07-16T11:45:22;2.88;;;2.60;;
20294;SDS011;10306;52.128;5.208;2023-07-16T11:47:51;2.95;;;2.75;;
20294;SDS011;10306;52.128;5.208;2023-07-16T11:50:17;2.45;;;2.22;;
20294;SDS011;10306;52.128;5.208;2023-07-16T11:52:43;3.08;;;2.40;;
20294;SDS011;10306;52.128;5.208;2023-07-16T11:55:17;2.88;;;2.50;;
20294;SDS011;10306;52.128;5.208;2023-07-16T11:57:43;2.60;;;2.40;;
20294;SDS011;10306;52.128;5.208;2023-07-16T12:00:09;3.75;;;2.83;;
20294;SDS011;10306;52.128;5.208;2023-07-16T12:02:36;1.90;;;1.80;;
20294;SDS011;10306;52.128;5.208;2023-07-16T12:05:02;2.90;;;2.30;;
20294;SDS011;10306;52.128;5.208;2023-07-16T12:09:57;2.30;;;2.10;;
20294;SDS011;10306;52.128;5.208;2023-07-16T12:12:23;2.20;;;2.08;;
20294;SDS011;10306;52.128;5.208;2023-07-16T12:14:49;1.98;;;1.70;;
20294;SDS011;10306;52.128;5.208;2023-07-16T12:17:15;2.90;;;1.95;;
20294;SDS011;10306;52.128;5.208;2023-07-16T12:19:41;2.17;;;2.08;;
20294;SDS011;10306;52.128;5.208;2023-07-16T12:22:07;1.70;;;1.60;;
20294;SDS011;10306;52.128;5.208;2023-07-16T12:24:34;2.05;;;1.85;;
20294;SDS011;10306;52.128;5.208;2023-07-16T12:27:00;3.47;;;2.05;;
20294;SDS011;10306;52.128;5.208;2023-07-16T12:29:26;3.33;;;1.83;;
20294;SDS011;10306;52.128;5.208;2023-07-16T12:31:52;3.08;;;1.98;;
20294;SDS011;10306;52.128;5.208;2023-07-16T12:34:18;1.70;;;1.58;;
20294;SDS011;10306;52.128;5.208;2023-07-16T12:36:44;2.25;;;1.90;;
20294;SDS011;10306;52.128;5.208;2023-07-16T12:39:10;1.88;;;1.60;;
20294;SDS011;10306;52.128;5.208;2023-07-16T12:41:36;1.75;;;1.65;;
20294;SDS011;10306;52.128;5.208;2023-07-16T12:44:02;2.13;;;1.90;;
20294;SDS011;10306;52.128;5.208;2023-07-16T12:46:28;1.83;;;1.58;;
20294;SDS011;10306;52.128;5.208;2023-07-16T12:48:54;2.80;;;1.80;;
20294;SDS011;10306;52.128;5.208;2023-07-16T12:51:20;4.03;;;2.00;;
20294;SDS011;10306;52.128;5.208;2023-07-16T12:53:46;2.00;;;1.90;;
20294;SDS011;10306;52.128;5.208;2023-07-16T12:56:12;2.00;;;1.52;;
20294;SDS011;10306;52.128;5.208;2023-07-16T12:58:38;2.40;;;1.52;;
20294;SDS011;10306;52.128;5.208;2023-07-16T13:01:04;1.90;;;1.80;;
20294;SDS011;10306;52.128;5.208;2023-07-16T13:03:30;2.90;;;1.50;;
20294;SDS011;10306;52.128;5.208;2023-07-16T13:05:56;3.95;;;2.08;;
20294;SDS011;10306;52.128;5.208;2023-07-16T13:08:22;2.22;;;1.63;;
20294;SDS011;10306;52.128;5.208;2023-07-16T13:10:48;3.65;;;1.50;;
20294;SDS011;10306;52.128;5.208;2023-07-16T13:13:14;3.45;;;1.70;;
20294;SDS011;10306;52.128;5.208;2023-07-16T13:15:40;3.13;;;1.60;;
20294;SDS011;10306;52.128;5.208;2023-07-16T13:18:07;2.35;;;1.52;;
20294;SDS011;10306;52.128;5.208;2023-07-16T13:20:35;1.85;;;1.40;;
20294;SDS011;10306;52.128;5.208;2023-07-16T13:23:01;2.47;;;1.20;;
20294;SDS011;10306;52.128;5.208;2023-07-16T13:25:28;5.25;;;1.60;;
20294;SDS011;10306;52.128;5.208;2023-07-16T13:27:55;1.00;;;1.00;;
20294;SDS011;10306;52.128;5.208;2023-07-16T13:30:21;1.92;;;1.30;;
20294;SDS011;10306;52.128;5.208;2023-07-16T13:32:47;3.20;;;1.27;;
20294;SDS011;10306;52.128;5.208;2023-07-16T13:35:17;2.75;;;1.25;;
20294;SDS011;10306;52.128;5.208;2023-07-16T13:37:43;2.58;;;1.25;;
20294;SDS011;10306;52.128;5.208;2023-07-16T13:40:11;3.28;;;1.13;;
20294;SDS011;10306;52.128;5.208;2023-07-16T13:42:37;3.08;;;1.27;;
20294;SDS011;10306;52.128;5.208;2023-07-16T13:45:03;1.92;;;1.30;;
20294;SDS011;10306;52.128;5.208;2023-07-16T13:47:29;1.58;;;1.10;;
20294;SDS011;10306;52.128;5.208;2023-07-16T13:49:55;2.40;;;1.00;;
20294;SDS011;10306;52.128;5.208;2023-07-16T13:52:21;1.25;;;1.05;;
20294;SDS011;10306;52.128;5.208;2023-07-16T13:54:47;1.55;;;1.13;;
20294;SDS011;10306;52.128;5.208;2023-07-16T13:57:13;2.60;;;1.30;;
20294;SDS011;10306;52.128;5.208;2023-07-16T13:59:39;1.67;;;1.10;;
20294;SDS011;10306;52.128;5.208;2023-07-16T14:02:05;1.08;;;0.98;;
20294;SDS011;10306;52.128;5.208;2023-07-16T14:04:31;2.50;;;1.20;;
20294;SDS011;10306;52.128;5.208;2023-07-16T14:06:58;1.58;;;0.93;;
20294;SDS011;10306;52.128;5.208;2023-07-16T14:09:24;1.65;;;1.05;;
20294;SDS011;10306;52.128;5.208;2023-07-16T14:11:50;1.38;;;1.13;;
20294;SDS011;10306;52.128;5.208;2023-07-16T14:14:17;1.60;;;1.10;;
20294;SDS011;10306;52.128;5.208;2023-07-16T14:16:43;2.30;;;1.20;;
20294;SDS011;10306;52.128;5.208;2023-07-16T14:19:09;2.15;;;1.00;;
20294;SDS011;10306;52.128;5.208;2023-07-16T14:21:37;1.42;;;1.25;;
20294;SDS011;10306;52.128;5.208;2023-07-16T14:24:03;3.35;;;1.30;;
20294;SDS011;10306;52.128;5.208;2023-07-16T14:26:29;1.25;;;0.95;;
20294;SDS011;10306;52.128;5.208;2023-07-16T14:28:55;1.83;;;1.20;;
20294;SDS011;10306;52.128;5.208;2023-07-16T14:31:21;1.60;;;1.20;;
20294;SDS011;10306;52.128;5.208;2023-07-16T14:33:47;1.02;;;0.90;;
20294;SDS011;10306;52.128;5.208;2023-07-16T14:36:13;1.38;;;1.10;;
20294;SDS011;10306;52.128;5.208;2023-07-16T14:38:39;2.08;;;1.27;;
20294;SDS011;10306;52.128;5.208;2023-07-16T14:41:05;2.42;;;1.48;;
20294;SDS011;10306;52.128;5.208;2023-07-16T14:43:32;4.35;;;1.60;;
20294;SDS011;10306;52.128;5.208;2023-07-16T14:45:58;4.95;;;1.50;;
20294;SDS011;10306;52.128;5.208;2023-07-16T14:48:24;2.88;;;1.75;;
20294;SDS011;10306;52.128;5.208;2023-07-16T14:50:52;3.10;;;1.85;;